sensor_id;sensor_type;location;lat;lon;timestamp;temperature;humidity
42145;DHT22;27813;43.516;11.890;2023-11-18T00:02:14;3.00;94.50
42145;DHT22;27813;43.516;11.890;2023-11-18T00:06:19;3.00;94.90
42145;DHT22;27813;43.516;11.890;2023-11-18T00:10:24;3.00;94.80
42145;DHT22;27813;43.516;11.890;2023-11-18T00:14:28;2.90;94.80
42145;DHT22;27813;43.516;11.890;2023-11-18T00:18:34;3.00;95.10
42145;DHT22;27813;43.516;11.890;2023-11-18T00:22:39;2.90;94.70
42145;DHT22;27813;43.516;11.890;2023-11-18T00:26:45;2.90;94.70
42145;DHT22;27813;43.516;11.890;2023-11-18T00:30:49;2.80;94.80
42145;DHT22;27813;43.516;11.890;2023-11-18T00:34:54;2.80;94.50
42145;DHT22;27813;43.516;11.890;2023-11-18T00:38:59;2.70;94.30
42145;DHT22;27813;43.516;11.890;2023-11-18T00:43:03;2.60;94.20
42145;DHT22;27813;43.516;11.890;2023-11-18T00:47:08;2.50;94.30
42145;DHT22;27813;43.516;11.890;2023-11-18T00:51:13;2.60;94.60
42145;DHT22;27813;43.516;11.890;2023-11-18T00:55:17;2.70;94.90
42145;DHT22;27813;43.516;11.890;2023-11-18T00:59:22;2.80;94.80
42145;DHT22;27813;43.516;11.890;2023-11-18T01:03:28;2.90;94.80
42145;DHT22;27813;43.516;11.890;2023-11-18T01:07:32;2.90;94.80
42145;DHT22;27813;43.516;11.890;2023-11-18T01:11:37;2.90;94.50
42145;DHT22;27813;43.516;11.890;2023-11-18T01:15:41;2.90;94.50
42145;DHT22;27813;43.516;11.890;2023-11-18T01:19:45;2.70;94.10
42145;DHT22;27813;43.516;11.890;2023-11-18T01:23:51;2.50;93.90
42145;DHT22;27813;43.516;11.890;2023-11-18T01:27:56;2.30;93.80
42145;DHT22;27813;43.516;11.890;2023-11-18T01:32:00;2.30;94.20
42145;DHT22;27813;43.516;11.890;2023-11-18T01:36:14;2.40;94.90
42145;DHT22;27813;43.516;11.890;2023-11-18T01:40:22;2.70;94.90
42145;DHT22;27813;43.516;11.890;2023-11-18T01:44:34;2.70;94.80
42145;DHT22;27813;43.516;11.890;2023-11-18T01:48:40;2.70;94.60
42145;DHT22;27813;43.516;11.890;2023-11-18T01:52:47;2.70;94.80
42145;DHT22;27813;43.516;11.890;2023-11-18T01:56:53;2.60;94.90
42145;DHT22;27813;43.516;11.890;2023-11-18T02:00:59;2.50;94.70
42145;DHT22;27813;43.516;11.890;2023-11-18T02:05:06;2.40;94.60
42145;DHT22;27813;43.516;11.890;2023-11-18T02:09:12;2.40;94.50
42145;DHT22;27813;43.516;11.890;2023-11-18T02:13:24;2.30;94.40
42145;DHT22;27813;43.516;11.890;2023-11-18T02:17:41;2.10;94.20
42145;DHT22;27813;43.516;11.890;2023-11-18T02:21:48;2.10;94.40
42145;DHT22;27813;43.516;11.890;2023-11-18T02:25:54;2.20;94.70
42145;DHT22;27813;43.516;11.890;2023-11-18T02:30:05;2.20;94.70
42145;DHT22;27813;43.516;11.890;2023-11-18T02:34:21;2.30;94.70
42145;DHT22;27813;43.516;11.890;2023-11-18T02:38:41;2.20;94.30
42145;DHT22;27813;43.516;11.890;2023-11-18T02:42:51;2.10;94.30
42145;DHT22;27813;43.516;11.890;2023-11-18T02:46:59;2.00;94.00
42145;DHT22;27813;43.516;11.890;2023-11-18T02:51:05;2.00;93.80
42145;DHT22;27813;43.516;11.890;2023-11-18T02:55:12;1.90;93.80
42145;DHT22;27813;43.516;11.890;2023-11-18T02:59:18;1.90;93.90
42145;DHT22;27813;43.516;11.890;2023-11-18T03:07:41;1.70;93.80
42145;DHT22;27813;43.516;11.890;2023-11-18T03:11:45;1.70;93.90
42145;DHT22;27813;43.516;11.890;2023-11-18T03:15:50;1.80;94.50
42145;DHT22;27813;43.516;11.890;2023-11-18T03:19:55;1.90;94.70
42145;DHT22;27813;43.516;11.890;2023-11-18T03:23:59;1.90;94.40
42145;DHT22;27813;43.516;11.890;2023-11-18T03:28:03;1.90;94.30
42145;DHT22;27813;43.516;11.890;2023-11-18T03:32:10;1.90;94.60
42145;DHT22;27813;43.516;11.890;2023-11-18T03:36:16;2.00;95.00
42145;DHT22;27813;43.516;11.890;2023-11-18T03:40:22;2.10;95.10
42145;DHT22;27813;43.516;11.890;2023-11-18T03:44:26;2.40;95.40
42145;DHT22;27813;43.516;11.890;2023-11-18T03:48:31;2.40;95.20
42145;DHT22;27813;43.516;11.890;2023-11-18T03:52:36;2.30;94.50
42145;DHT22;27813;43.516;11.890;2023-11-18T03:56:43;2.10;94.20
42145;DHT22;27813;43.516;11.890;2023-11-18T04:00:47;1.90;94.30
42145;DHT22;27813;43.516;11.890;2023-11-18T04:04:51;1.90;94.40
42145;DHT22;27813;43.516;11.890;2023-11-18T04:08:55;1.80;94.30
42145;DHT22;27813;43.516;11.890;2023-11-18T04:12:59;1.60;93.90
42145;DHT22;27813;43.516;11.890;2023-11-18T04:17:03;1.50;93.80
42145;DHT22;27813;43.516;11.890;2023-11-18T04:21:09;1.30;93.70
42145;DHT22;27813;43.516;11.890;2023-11-18T04:25:13;1.20;93.90
42145;DHT22;27813;43.516;11.890;2023-11-18T04:29:17;1.20;93.80
42145;DHT22;27813;43.516;11.890;2023-11-18T04:33:22;1.20;94.20
42145;DHT22;27813;43.516;11.890;2023-11-18T04:37:30;1.30;94.00
42145;DHT22;27813;43.516;11.890;2023-11-18T04:41:33;1.30;94.20
42145;DHT22;27813;43.516;11.890;2023-11-18T04:45:37;1.30;94.10
42145;DHT22;27813;43.516;11.890;2023-11-18T04:49:42;1.40;94.30
42145;DHT22;27813;43.516;11.890;2023-11-18T04:53:45;1.40;94.20
42145;DHT22;27813;43.516;11.890;2023-11-18T04:57:49;1.50;94.30
42145;DHT22;27813;43.516;11.890;2023-11-18T05:01:53;1.50;94.50
42145;DHT22;27813;43.516;11.890;2023-11-18T05:05:57;1.40;94.20
42145;DHT22;27813;43.516;11.890;2023-11-18T05:10:02;1.40;94.60
42145;DHT22;27813;43.516;11.890;2023-11-18T05:14:08;1.60;94.80
42145;DHT22;27813;43.516;11.890;2023-11-18T05:18:13;1.70;94.90
42145;DHT22;27813;43.516;11.890;2023-11-18T05:22:20;1.80;95.40
42145;DHT22;27813;43.516;11.890;2023-11-18T05:26:24;2.00;95.90
42145;DHT22;27813;43.516;11.890;2023-11-18T05:30:28;2.30;95.80
42145;DHT22;27813;43.516;11.890;2023-11-18T05:34:36;2.30;95.30
42145;DHT22;27813;43.516;11.890;2023-11-18T05:38:40;2.10;94.80
42145;DHT22;27813;43.516;11.890;2023-11-18T05:42:46;1.90;94.50
42145;DHT22;27813;43.516;11.890;2023-11-18T05:46:52;1.90;95.00
42145;DHT22;27813;43.516;11.890;2023-11-18T05:50:56;1.80;95.00
42145;DHT22;27813;43.516;11.890;2023-11-18T05:55:00;1.70;94.60
42145;DHT22;27813;43.516;11.890;2023-11-18T05:59:04;1.50;94.30
42145;DHT22;27813;43.516;11.890;2023-11-18T06:03:08;1.40;94.10
42145;DHT22;27813;43.516;11.890;2023-11-18T06:07:15;1.40;94.40
42145;DHT22;27813;43.516;11.890;2023-11-18T06:11:19;1.50;94.70
42145;DHT22;27813;43.516;11.890;2023-11-18T06:15:22;1.60;94.80
42145;DHT22;27813;43.516;11.890;2023-11-18T06:19:26;1.80;95.10
42145;DHT22;27813;43.516;11.890;2023-11-18T06:23:30;1.90;95.30
42145;DHT22;27813;43.516;11.890;2023-11-18T06:27:39;1.90;95.30
42145;DHT22;27813;43.516;11.890;2023-11-18T06:31:43;2.00;95.60
42145;DHT22;27813;43.516;11.890;2023-11-18T06:35:47;2.00;95.30
42145;DHT22;27813;43.516;11.890;2023-11-18T06:39:51;2.10;95.50
42145;DHT22;27813;43.516;11.890;2023-11-18T06:43:56;2.20;95.80
42145;DHT22;27813;43.516;11.890;2023-11-18T06:48:05;2.30;95.70
42145;DHT22;27813;43.516;11.890;2023-11-18T06:52:11;2.20;95.00
42145;DHT22;27813;43.516;11.890;2023-11-18T06:56:16;2.00;94.70
42145;DHT22;27813;43.516;11.890;2023-11-18T07:00:21;1.90;94.80
42145;DHT22;27813;43.516;11.890;2023-11-18T07:04:26;1.80;95.00
42145;DHT22;27813;43.516;11.890;2023-11-18T07:08:30;1.90;95.40
42145;DHT22;27813;43.516;11.890;2023-11-18T07:12:34;2.10;95.50
42145;DHT22;27813;43.516;11.890;2023-11-18T07:16:42;2.20;95.70
42145;DHT22;27813;43.516;11.890;2023-11-18T07:20:46;2.30;95.70
42145;DHT22;27813;43.516;11.890;2023-11-18T07:24:50;2.40;95.70
42145;DHT22;27813;43.516;11.890;2023-11-18T07:28:54;2.40;95.60
42145;DHT22;27813;43.516;11.890;2023-11-18T07:32:57;2.50;95.80
42145;DHT22;27813;43.516;11.890;2023-11-18T07:37:04;2.50;95.80
42145;DHT22;27813;43.516;11.890;2023-11-18T07:41:09;2.70;96.00
42145;DHT22;27813;43.516;11.890;2023-11-18T07:45:13;2.80;96.10
42145;DHT22;27813;43.516;11.890;2023-11-18T07:49:21;2.90;95.90
42145;DHT22;27813;43.516;11.890;2023-11-18T07:53:29;3.10;95.90
42145;DHT22;27813;43.516;11.890;2023-11-18T07:57:33;3.20;96.00
42145;DHT22;27813;43.516;11.890;2023-11-18T08:01:41;3.20;95.90
42145;DHT22;27813;43.516;11.890;2023-11-18T08:05:50;3.40;96.30
42145;DHT22;27813;43.516;11.890;2023-11-18T08:09:54;3.50;96.50
42145;DHT22;27813;43.516;11.890;2023-11-18T08:13:59;3.60;96.60
42145;DHT22;27813;43.516;11.890;2023-11-18T08:18:03;3.70;96.70
42145;DHT22;27813;43.516;11.890;2023-11-18T08:22:13;3.80;96.60
42145;DHT22;27813;43.516;11.890;2023-11-18T08:26:20;3.90;96.70
42145;DHT22;27813;43.516;11.890;2023-11-18T08:30:24;3.90;96.60
42145;DHT22;27813;43.516;11.890;2023-11-18T08:34:28;4.10;96.80
42145;DHT22;27813;43.516;11.890;2023-11-18T08:38:32;4.20;96.90
42145;DHT22;27813;43.516;11.890;2023-11-18T08:42:37;4.30;96.80
42145;DHT22;27813;43.516;11.890;2023-11-18T08:46:41;4.40;96.80
42145;DHT22;27813;43.516;11.890;2023-11-18T08:50:47;4.40;96.80
42145;DHT22;27813;43.516;11.890;2023-11-18T08:54:51;4.50;96.70
42145;DHT22;27813;43.516;11.890;2023-11-18T08:59:15;4.50;96.70
42145;DHT22;27813;43.516;11.890;2023-11-18T09:03:25;4.60;96.50
42145;DHT22;27813;43.516;11.890;2023-11-18T09:07:40;4.60;96.60
42145;DHT22;27813;43.516;11.890;2023-11-18T09:11:49;4.70;96.70
42145;DHT22;27813;43.516;11.890;2023-11-18T09:15:53;4.90;96.70
42145;DHT22;27813;43.516;11.890;2023-11-18T09:19:57;5.00;96.90
42145;DHT22;27813;43.516;11.890;2023-11-18T09:24:01;5.10;97.00
42145;DHT22;27813;43.516;11.890;2023-11-18T09:28:11;5.30;96.90
42145;DHT22;27813;43.516;11.890;2023-11-18T09:32:17;5.40;96.80
42145;DHT22;27813;43.516;11.890;2023-11-18T09:36:22;5.50;96.90
42145;DHT22;27813;43.516;11.890;2023-11-18T09:40:29;5.70;97.00
42145;DHT22;27813;43.516;11.890;2023-11-18T09:44:36;5.80;97.00
42145;DHT22;27813;43.516;11.890;2023-11-18T09:49:17;5.90;97.00
42145;DHT22;27813;43.516;11.890;2023-11-18T09:53:30;6.10;96.90
42145;DHT22;27813;43.516;11.890;2023-11-18T09:57:44;6.20;96.80
42145;DHT22;27813;43.516;11.890;2023-11-18T10:01:54;6.30;96.60
42145;DHT22;27813;43.516;11.890;2023-11-18T10:06:03;6.30;96.50
42145;DHT22;27813;43.516;11.890;2023-11-18T10:10:10;6.20;96.50
42145;DHT22;27813;43.516;11.890;2023-11-18T10:14:18;6.30;96.60
42145;DHT22;27813;43.516;11.890;2023-11-18T10:18:22;6.40;96.80
42145;DHT22;27813;43.516;11.890;2023-11-18T10:22:29;6.40;96.70
42145;DHT22;27813;43.516;11.890;2023-11-18T10:26:32;6.50;96.70
42145;DHT22;27813;43.516;11.890;2023-11-18T10:30:48;6.50;96.60
42145;DHT22;27813;43.516;11.890;2023-11-18T10:34:55;6.50;96.70
42145;DHT22;27813;43.516;11.890;2023-11-18T10:39:01;6.60;96.60
42145;DHT22;27813;43.516;11.890;2023-11-18T10:43:08;6.70;96.60
42145;DHT22;27813;43.516;11.890;2023-11-18T10:47:14;6.70;96.70
42145;DHT22;27813;43.516;11.890;2023-11-18T10:51:21;6.80;96.90
42145;DHT22;27813;43.516;11.890;2023-11-18T10:55:37;6.90;96.90
42145;DHT22;27813;43.516;11.890;2023-11-18T11:00:17;7.00;96.90
42145;DHT22;27813;43.516;11.890;2023-11-18T11:04:23;7.10;96.90
42145;DHT22;27813;43.516;11.890;2023-11-18T11:08:27;7.30;97.10
42145;DHT22;27813;43.516;11.890;2023-11-18T11:12:50;7.40;97.10
42145;DHT22;27813;43.516;11.890;2023-11-18T11:16:59;7.50;96.80
42145;DHT22;27813;43.516;11.890;2023-11-18T11:21:15;7.60;96.80
42145;DHT22;27813;43.516;11.890;2023-11-18T11:30:42;7.80;96.90
42145;DHT22;27813;43.516;11.890;2023-11-18T11:34:54;8.00;96.80
42145;DHT22;27813;43.516;11.890;2023-11-18T11:39:01;8.00;96.80
42145;DHT22;27813;43.516;11.890;2023-11-18T11:43:08;8.30;96.80
42145;DHT22;27813;43.516;11.890;2023-11-18T11:47:20;8.40;96.50
42145;DHT22;27813;43.516;11.890;2023-11-18T11:51:43;8.40;96.40
42145;DHT22;27813;43.516;11.890;2023-11-18T11:55:52;8.50;96.10
42145;DHT22;27813;43.516;11.890;2023-11-18T11:59:57;8.60;96.30
42145;DHT22;27813;43.516;11.890;2023-11-18T12:04:19;8.70;96.20
42145;DHT22;27813;43.516;11.890;2023-11-18T12:08:35;8.80;95.90
42145;DHT22;27813;43.516;11.890;2023-11-18T12:12:44;8.90;95.90
42145;DHT22;27813;43.516;11.890;2023-11-18T12:17:07;8.90;96.10
42145;DHT22;27813;43.516;11.890;2023-11-18T12:21:55;9.00;96.30
42145;DHT22;27813;43.516;11.890;2023-11-18T12:25:59;9.10;96.30
42145;DHT22;27813;43.516;11.890;2023-11-18T12:34:50;9.20;96.10
42145;DHT22;27813;43.516;11.890;2023-11-18T12:43:33;9.40;96.00
42145;DHT22;27813;43.516;11.890;2023-11-18T12:47:43;9.50;96.00
42145;DHT22;27813;43.516;11.890;2023-11-18T12:51:55;9.50;95.90
42145;DHT22;27813;43.516;11.890;2023-11-18T12:56:00;9.50;95.70
42145;DHT22;27813;43.516;11.890;2023-11-18T13:00:06;9.50;95.80
42145;DHT22;27813;43.516;11.890;2023-11-18T13:04:12;9.60;96.00
42145;DHT22;27813;43.516;11.890;2023-11-18T13:08:19;9.60;95.80
42145;DHT22;27813;43.516;11.890;2023-11-18T13:12:26;9.60;96.00
42145;DHT22;27813;43.516;11.890;2023-11-18T13:16:33;9.70;95.90
42145;DHT22;27813;43.516;11.890;2023-11-18T13:20:38;9.70;95.60
42145;DHT22;27813;43.516;11.890;2023-11-18T13:24:43;9.80;95.90
42145;DHT22;27813;43.516;11.890;2023-11-18T13:28:50;9.90;96.00
42145;DHT22;27813;43.516;11.890;2023-11-18T13:32:54;9.90;96.00
42145;DHT22;27813;43.516;11.890;2023-11-18T13:36:59;10.00;95.80
42145;DHT22;27813;43.516;11.890;2023-11-18T13:41:05;10.00;95.50
42145;DHT22;27813;43.516;11.890;2023-11-18T13:45:13;10.00;95.40
42145;DHT22;27813;43.516;11.890;2023-11-18T13:49:39;10.00;95.60
42145;DHT22;27813;43.516;11.890;2023-11-18T13:53:43;10.00;95.90
42145;DHT22;27813;43.516;11.890;2023-11-18T13:57:47;10.20;96.00
42145;DHT22;27813;43.516;11.890;2023-11-18T14:01:55;10.30;96.00
42145;DHT22;27813;43.516;11.890;2023-11-18T14:06:01;10.30;95.80
42145;DHT22;27813;43.516;11.890;2023-11-18T14:10:08;10.30;95.90
42145;DHT22;27813;43.516;11.890;2023-11-18T14:14:16;10.30;96.10
42145;DHT22;27813;43.516;11.890;2023-11-18T14:18:22;10.40;95.90
42145;DHT22;27813;43.516;11.890;2023-11-18T14:22:26;10.40;96.10
42145;DHT22;27813;43.516;11.890;2023-11-18T14:26:31;10.40;95.80
42145;DHT22;27813;43.516;11.890;2023-11-18T14:30:35;10.30;95.50
42145;DHT22;27813;43.516;11.890;2023-11-18T14:34:39;10.20;95.40
42145;DHT22;27813;43.516;11.890;2023-11-18T14:38:46;10.00;95.30
42145;DHT22;27813;43.516;11.890;2023-11-18T14:42:51;9.90;95.30
42145;DHT22;27813;43.516;11.890;2023-11-18T14:46:55;9.70;95.40
42145;DHT22;27813;43.516;11.890;2023-11-18T14:50:59;9.60;95.60
42145;DHT22;27813;43.516;11.890;2023-11-18T14:55:04;9.60;95.60
42145;DHT22;27813;43.516;11.890;2023-11-18T14:59:10;9.50;95.50
42145;DHT22;27813;43.516;11.890;2023-11-18T15:03:15;9.40;95.60
42145;DHT22;27813;43.516;11.890;2023-11-18T15:07:21;9.20;95.70
42145;DHT22;27813;43.516;11.890;2023-11-18T15:11:26;9.10;95.90
42145;DHT22;27813;43.516;11.890;2023-11-18T15:15:31;9.00;96.00
42145;DHT22;27813;43.516;11.890;2023-11-18T15:19:37;8.90;96.10
42145;DHT22;27813;43.516;11.890;2023-11-18T15:23:41;8.80;96.20
42145;DHT22;27813;43.516;11.890;2023-11-18T15:27:45;8.70;96.20
42145;DHT22;27813;43.516;11.890;2023-11-18T15:31:49;8.50;96.20
42145;DHT22;27813;43.516;11.890;2023-11-18T15:35:53;8.30;95.70
42145;DHT22;27813;43.516;11.890;2023-11-18T15:39:57;8.00;95.60
42145;DHT22;27813;43.516;11.890;2023-11-18T15:44:01;7.70;95.20
42145;DHT22;27813;43.516;11.890;2023-11-18T15:48:12;7.40;95.10
42145;DHT22;27813;43.516;11.890;2023-11-18T15:52:18;7.10;95.20
42145;DHT22;27813;43.516;11.890;2023-11-18T15:56:22;6.90;95.60
42145;DHT22;27813;43.516;11.890;2023-11-18T16:00:27;6.70;95.60
42145;DHT22;27813;43.516;11.890;2023-11-18T16:04:32;6.50;96.10
42145;DHT22;27813;43.516;11.890;2023-11-18T16:08:36;6.50;96.40
42145;DHT22;27813;43.516;11.890;2023-11-18T16:12:41;6.40;96.30
42145;DHT22;27813;43.516;11.890;2023-11-18T16:16:46;6.50;96.50
42145;DHT22;27813;43.516;11.890;2023-11-18T16:21:22;6.40;96.60
42145;DHT22;27813;43.516;11.890;2023-11-18T16:25:31;6.40;96.50
42145;DHT22;27813;43.516;11.890;2023-11-18T16:29:43;6.20;96.10
42145;DHT22;27813;43.516;11.890;2023-11-18T16:33:47;6.10;96.10
42145;DHT22;27813;43.516;11.890;2023-11-18T16:37:51;6.00;96.40
42145;DHT22;27813;43.516;11.890;2023-11-18T16:41:55;6.00;96.50
42145;DHT22;27813;43.516;11.890;2023-11-18T16:45:59;6.00;96.40
42145;DHT22;27813;43.516;11.890;2023-11-18T16:50:03;5.90;96.50
42145;DHT22;27813;43.516;11.890;2023-11-18T16:54:08;5.80;96.50
42145;DHT22;27813;43.516;11.890;2023-11-18T16:58:12;5.70;96.50
42145;DHT22;27813;43.516;11.890;2023-11-18T17:02:16;5.60;96.50
42145;DHT22;27813;43.516;11.890;2023-11-18T17:06:19;5.50;96.30
42145;DHT22;27813;43.516;11.890;2023-11-18T17:10:24;5.40;96.50
42145;DHT22;27813;43.516;11.890;2023-11-18T17:14:28;5.40;96.50
42145;DHT22;27813;43.516;11.890;2023-11-18T17:18:32;5.40;96.50
42145;DHT22;27813;43.516;11.890;2023-11-18T17:22:37;5.30;96.50
42145;DHT22;27813;43.516;11.890;2023-11-18T17:26:45;5.30;96.60
42145;DHT22;27813;43.516;11.890;2023-11-18T17:30:50;5.30;96.60
42145;DHT22;27813;43.516;11.890;2023-11-18T17:34:57;5.30;96.70
42145;DHT22;27813;43.516;11.890;2023-11-18T17:39:03;5.30;96.70
42145;DHT22;27813;43.516;11.890;2023-11-18T17:43:06;5.20;96.70
42145;DHT22;27813;43.516;11.890;2023-11-18T17:47:10;5.20;96.70
42145;DHT22;27813;43.516;11.890;2023-11-18T17:51:16;5.10;96.50
42145;DHT22;27813;43.516;11.890;2023-11-18T17:55:20;5.00;96.40
42145;DHT22;27813;43.516;11.890;2023-11-18T17:59:24;4.80;96.10
42145;DHT22;27813;43.516;11.890;2023-11-18T18:03:30;4.70;96.20
42145;DHT22;27813;43.516;11.890;2023-11-18T18:07:35;4.60;96.20
42145;DHT22;27813;43.516;11.890;2023-11-18T18:11:39;4.50;96.10
42145;DHT22;27813;43.516;11.890;2023-11-18T18:15:43;4.40;96.00
42145;DHT22;27813;43.516;11.890;2023-11-18T18:19:50;4.30;96.10
42145;DHT22;27813;43.516;11.890;2023-11-18T18:23:54;4.20;96.00
42145;DHT22;27813;43.516;11.890;2023-11-18T18:27:59;4.20;95.90
42145;DHT22;27813;43.516;11.890;2023-11-18T18:32:04;4.00;95.60
42145;DHT22;27813;43.516;11.890;2023-11-18T18:36:10;3.90;95.40
42145;DHT22;27813;43.516;11.890;2023-11-18T18:40:16;3.80;95.70
42145;DHT22;27813;43.516;11.890;2023-11-18T18:44:29;3.70;95.70
42145;DHT22;27813;43.516;11.890;2023-11-18T18:48:39;3.70;95.70
42145;DHT22;27813;43.516;11.890;2023-11-18T18:52:51;3.80;96.00
42145;DHT22;27813;43.516;11.890;2023-11-18T18:57:03;3.80;95.80
42145;DHT22;27813;43.516;11.890;2023-11-18T19:01:17;3.80;95.70
42145;DHT22;27813;43.516;11.890;2023-11-18T19:05:24;3.80;95.90
42145;DHT22;27813;43.516;11.890;2023-11-18T19:09:32;3.90;95.90
42145;DHT22;27813;43.516;11.890;2023-11-18T19:13:48;3.80;96.10
42145;DHT22;27813;43.516;11.890;2023-11-18T19:18:14;3.80;96.10
42145;DHT22;27813;43.516;11.890;2023-11-18T19:22:42;3.80;96.10
42145;DHT22;27813;43.516;11.890;2023-11-18T19:27:02;3.70;95.80
42145;DHT22;27813;43.516;11.890;2023-11-18T19:31:38;3.60;95.80
42145;DHT22;27813;43.516;11.890;2023-11-18T19:35:46;3.70;96.00
42145;DHT22;27813;43.516;11.890;2023-11-18T19:39:52;3.70;96.10
42145;DHT22;27813;43.516;11.890;2023-11-18T19:44:04;3.80;96.30
42145;DHT22;27813;43.516;11.890;2023-11-18T19:48:18;3.80;96.00
42145;DHT22;27813;43.516;11.890;2023-11-18T19:52:44;3.60;95.70
42145;DHT22;27813;43.516;11.890;2023-11-18T19:56:57;3.40;95.40
42145;DHT22;27813;43.516;11.890;2023-11-18T20:01:04;3.30;95.30
42145;DHT22;27813;43.516;11.890;2023-11-18T20:05:09;3.20;95.20
42145;DHT22;27813;43.516;11.890;2023-11-18T20:09:16;3.20;95.10
42145;DHT22;27813;43.516;11.890;2023-11-18T20:13:25;3.10;95.30
42145;DHT22;27813;43.516;11.890;2023-11-18T20:17:34;3.20;95.60
42145;DHT22;27813;43.516;11.890;2023-11-18T20:21:46;3.30;95.50
42145;DHT22;27813;43.516;11.890;2023-11-18T20:26:10;3.20;95.30
42145;DHT22;27813;43.516;11.890;2023-11-18T20:30:31;3.10;95.10
42145;DHT22;27813;43.516;11.890;2023-11-18T20:34:36;2.90;94.90
42145;DHT22;27813;43.516;11.890;2023-11-18T20:38:44;2.90;94.90
42145;DHT22;27813;43.516;11.890;2023-11-18T20:42:49;2.80;94.90
42145;DHT22;27813;43.516;11.890;2023-11-18T20:46:54;2.90;95.40
42145;DHT22;27813;43.516;11.890;2023-11-18T20:51:01;3.00;95.30
42145;DHT22;27813;43.516;11.890;2023-11-18T20:55:05;2.90;95.10
42145;DHT22;27813;43.516;11.890;2023-11-18T20:59:14;2.90;95.10
42145;DHT22;27813;43.516;11.890;2023-11-18T21:03:26;2.80;94.80
42145;DHT22;27813;43.516;11.890;2023-11-18T21:07:44;2.70;94.80
42145;DHT22;27813;43.516;11.890;2023-11-18T21:12:07;2.70;95.20
42145;DHT22;27813;43.516;11.890;2023-11-18T21:16:23;2.70;95.30
42145;DHT22;27813;43.516;11.890;2023-11-18T21:20:38;2.80;95.20
42145;DHT22;27813;43.516;11.890;2023-11-18T21:25:03;2.70;95.20
42145;DHT22;27813;43.516;11.890;2023-11-18T21:29:19;2.80;95.30
42145;DHT22;27813;43.516;11.890;2023-11-18T21:33:32;2.80;95.00
42145;DHT22;27813;43.516;11.890;2023-11-18T21:37:38;2.70;95.00
42145;DHT22;27813;43.516;11.890;2023-11-18T21:41:47;2.60;95.00
42145;DHT22;27813;43.516;11.890;2023-11-18T21:45:55;2.50;95.10
42145;DHT22;27813;43.516;11.890;2023-11-18T21:50:22;2.40;95.00
42145;DHT22;27813;43.516;11.890;2023-11-18T21:54:27;2.40;95.00
42145;DHT22;27813;43.516;11.890;2023-11-18T21:58:43;2.40;94.90
42145;DHT22;27813;43.516;11.890;2023-11-18T22:03:00;2.40;95.20
42145;DHT22;27813;43.516;11.890;2023-11-18T22:07:16;2.40;95.10
42145;DHT22;27813;43.516;11.890;2023-11-18T22:11:39;2.40;95.10
42145;DHT22;27813;43.516;11.890;2023-11-18T22:16:00;2.40;94.90
42145;DHT22;27813;43.516;11.890;2023-11-18T22:20:13;2.30;94.80
42145;DHT22;27813;43.516;11.890;2023-11-18T22:24:31;2.30;94.80
42145;DHT22;27813;43.516;11.890;2023-11-18T22:28:40;2.20;94.70
42145;DHT22;27813;43.516;11.890;2023-11-18T22:33:02;2.20;94.60
42145;DHT22;27813;43.516;11.890;2023-11-18T22:37:14;2.20;94.90
42145;DHT22;27813;43.516;11.890;2023-11-18T22:41:22;2.10;94.90
42145;DHT22;27813;43.516;11.890;2023-11-18T22:45:33;2.10;95.00
42145;DHT22;27813;43.516;11.890;2023-11-18T22:49:40;2.20;95.00
42145;DHT22;27813;43.516;11.890;2023-11-18T22:53:44;2.20;95.10
42145;DHT22;27813;43.516;11.890;2023-11-18T22:57:48;2.20;95.00
42145;DHT22;27813;43.516;11.890;2023-11-18T23:01:53;2.20;95.00
42145;DHT22;27813;43.516;11.890;2023-11-18T23:05:59;2.20;95.20
42145;DHT22;27813;43.516;11.890;2023-11-18T23:10:12;2.20;95.40
42145;DHT22;27813;43.516;11.890;2023-11-18T23:14:18;2.20;95.10
42145;DHT22;27813;43.516;11.890;2023-11-18T23:18:22;2.20;95.10
42145;DHT22;27813;43.516;11.890;2023-11-18T23:22:26;2.10;95.10
42145;DHT22;27813;43.516;11.890;2023-11-18T23:26:32;2.20;95.70
42145;DHT22;27813;43.516;11.890;2023-11-18T23:30:37;2.30;95.80
42145;DHT22;27813;43.516;11.890;2023-11-18T23:34:41;2.40;95.80
42145;DHT22;27813;43.516;11.890;2023-11-18T23:38:46;2.50;95.80
42145;DHT22;27813;43.516;11.890;2023-11-18T23:42:49;2.50;96.00
42145;DHT22;27813;43.516;11.890;2023-11-18T23:46:55;2.60;96.20
42145;DHT22;27813;43.516;11.890;2023-11-18T23:50:59;2.70;96.60
42145;DHT22;27813;43.516;11.890;2023-11-18T23:55:03;2.90;96.80
42145;DHT22;27813;43.516;11.890;2023-11-18T23:59:17;2.80;96.60
